createdAt,value
2018-10-21T00:02:13.827Z,6.30
2018-10-21T00:04:43.067Z,6.32
2018-10-21T00:07:12.492Z,6.31
2018-10-21T00:09:41.980Z,6.29
2018-10-21T00:12:11.408Z,6.27
2018-10-21T00:14:41.027Z,6.27
2018-10-21T00:17:10.515Z,6.26
2018-10-21T00:19:39.808Z,6.24
2018-10-21T00:22:09.133Z,6.24
2018-10-21T00:24:39.602Z,6.19
2018-10-21T00:27:09.001Z,6.13
2018-10-21T00:29:38.267Z,6.05
2018-10-21T00:32:07.883Z,6.17
2018-10-21T00:34:42.755Z,6.18
2018-10-21T00:37:12.202Z,6.13
2018-10-21T00:39:41.706Z,6.05
2018-10-21T00:42:11.135Z,6.13
2018-10-21T00:44:40.804Z,6.08
2018-10-21T00:47:10.245Z,6.11
2018-10-21T00:49:39.587Z,6.05
2018-10-21T00:52:08.886Z,5.82
2018-10-21T00:54:38.176Z,5.95
2018-10-21T00:57:07.484Z,5.98
2018-10-21T00:59:36.856Z,5.86
2018-10-21T01:02:06.973Z,5.86
2018-10-21T01:04:36.246Z,5.90
2018-10-21T01:07:05.858Z,5.85
2018-10-21T01:09:36.207Z,5.87
2018-10-21T01:12:05.807Z,5.84
2018-10-21T01:14:35.142Z,5.73
2018-10-21T01:17:04.520Z,5.72
2018-10-21T01:19:33.737Z,5.70
2018-10-21T01:22:03.098Z,5.62
2018-10-21T01:24:32.430Z,5.54
2018-10-21T01:27:01.737Z,5.64
2018-10-21T01:29:30.984Z,5.63
2018-10-21T01:32:00.258Z,5.56
2018-10-21T01:34:29.555Z,5.57
2018-10-21T01:36:58.936Z,5.53
2018-10-21T01:40:50.568Z,5.49
2018-10-21T01:43:21.432Z,5.50
2018-10-21T01:45:50.859Z,5.47
2018-10-21T01:48:21.505Z,5.45
2018-10-21T01:50:51.153Z,5.36
2018-10-21T01:53:21.198Z,5.28
2018-10-21T01:55:50.719Z,5.26
2018-10-21T01:58:20.021Z,5.26
2018-10-21T02:00:49.463Z,5.29
2018-10-21T02:03:18.810Z,5.11
2018-10-21T02:05:48.485Z,5.22
2018-10-21T02:08:17.869Z,5.22
2018-10-21T02:10:47.641Z,5.16
2018-10-21T02:13:17.115Z,5.17
2018-10-21T02:15:46.429Z,5.06
2018-10-21T02:18:15.781Z,5.11
2018-10-21T02:20:45.249Z,5.11
2018-10-21T02:23:14.754Z,5.19
2018-10-21T02:25:44.195Z,5.17
2018-10-21T02:28:13.749Z,5.12
2018-10-21T02:30:43.031Z,5.06
2018-10-21T02:33:12.596Z,4.94
2018-10-21T02:35:42.032Z,4.93
2018-10-21T02:38:11.463Z,4.91
2018-10-21T02:41:53.202Z,4.99
2018-10-21T02:44:23.324Z,4.92
2018-10-21T02:46:54.203Z,4.73
2018-10-21T02:49:23.878Z,4.65
2018-10-21T02:51:58.422Z,4.78
2018-10-21T02:54:28.889Z,4.84
2018-10-21T02:56:58.295Z,4.93
2018-10-21T02:59:28.100Z,4.94
2018-10-21T03:01:57.544Z,4.85
2018-10-21T03:04:27.045Z,4.79
2018-10-21T03:06:56.489Z,4.83
2018-10-21T03:09:26.378Z,4.79
2018-10-21T03:11:56.087Z,4.72
2018-10-21T03:14:25.503Z,4.67
2018-10-21T03:16:55.132Z,4.64
2018-10-21T03:19:24.730Z,4.64
2018-10-21T03:21:54.315Z,4.60
2018-10-21T03:24:23.939Z,4.59
2018-10-21T03:26:53.818Z,4.52
2018-10-21T03:29:23.557Z,4.49
2018-10-21T03:31:53.183Z,4.52
2018-10-21T03:34:22.913Z,4.48
2018-10-21T03:36:52.679Z,4.41
2018-10-21T03:39:22.487Z,4.43
2018-10-21T03:41:52.135Z,4.51
2018-10-21T03:44:21.733Z,4.47
2018-10-21T03:46:51.610Z,4.42
2018-10-21T03:49:21.102Z,4.36
2018-10-21T03:51:50.659Z,4.38
2018-10-21T03:54:20.512Z,4.41
2018-10-21T03:56:49.976Z,4.34
2018-10-21T03:59:19.521Z,4.31
2018-10-21T04:01:48.844Z,4.31
2018-10-21T04:04:18.307Z,4.24
2018-10-21T04:06:47.575Z,4.20
2018-10-21T04:09:16.918Z,4.22
2018-10-21T04:11:46.299Z,4.19
2018-10-21T04:14:15.599Z,4.18
2018-10-21T04:16:44.930Z,4.17
2018-10-21T04:19:14.369Z,4.19
2018-10-21T04:21:43.688Z,4.18
2018-10-21T04:24:13.163Z,4.14
2018-10-21T04:26:42.431Z,4.10
2018-10-21T04:29:11.888Z,4.17
2018-10-21T04:31:41.179Z,4.08
2018-10-21T04:34:10.682Z,4.02
2018-10-21T04:36:39.948Z,4.08
2018-10-21T04:39:41.054Z,3.96
2018-10-21T04:42:10.641Z,3.97
2018-10-21T04:44:39.979Z,3.96
2018-10-21T04:47:10.549Z,3.90
2018-10-21T04:49:39.905Z,3.93
2018-10-21T04:52:09.386Z,3.90
2018-10-21T04:54:38.746Z,3.91
2018-10-21T04:57:08.737Z,3.86
2018-10-21T04:59:39.360Z,4.00
2018-10-21T05:02:08.810Z,3.89
2018-10-21T05:04:38.065Z,3.86
2018-10-21T05:07:07.388Z,3.94
2018-10-21T05:09:36.948Z,3.93
2018-10-21T05:12:06.493Z,3.92
2018-10-21T05:14:36.390Z,4.02
2018-10-21T05:17:05.791Z,4.03
2018-10-21T05:19:35.136Z,4.12
2018-10-21T05:22:05.884Z,4.16
2018-10-21T05:24:35.142Z,4.13
2018-10-21T05:27:04.946Z,4.20
2018-10-21T05:29:34.484Z,4.26
2018-10-21T05:32:04.686Z,4.34
2018-10-21T05:34:33.951Z,4.35
2018-10-21T05:37:03.310Z,4.44
2018-10-21T05:39:36.683Z,4.52
2018-10-21T05:42:06.034Z,4.59
2018-10-21T05:44:35.308Z,4.58
2018-10-21T05:47:04.915Z,4.55
2018-10-21T05:49:34.194Z,4.59
2018-10-21T05:52:03.527Z,4.50
2018-10-21T05:54:38.464Z,4.56
2018-10-21T05:57:07.735Z,4.56
2018-10-21T05:59:37.179Z,4.68
2018-10-21T06:02:07.427Z,4.76
2018-10-21T06:04:36.737Z,4.87
2018-10-21T06:07:08.925Z,4.93
2018-10-21T06:09:38.605Z,4.98
2018-10-21T06:12:07.900Z,5.03
2018-10-21T06:14:37.274Z,5.19
2018-10-21T06:17:14.035Z,5.26
2018-10-21T06:19:47.355Z,5.34
2018-10-21T06:22:16.795Z,6.46
2018-10-21T06:24:46.083Z,5.83
2018-10-21T06:27:21.476Z,5.79
2018-10-21T06:29:51.110Z,5.76
2018-10-21T06:32:20.675Z,5.80
2018-10-21T06:34:50.572Z,5.86
2018-10-21T06:37:20.188Z,6.02
2018-10-21T06:39:49.843Z,6.48
2018-10-21T06:42:19.238Z,6.25
2018-10-21T06:44:48.670Z,5.96
2018-10-21T06:47:17.983Z,5.89
2018-10-21T06:49:47.385Z,5.87
2018-10-21T06:52:16.964Z,5.71
2018-10-21T06:54:46.281Z,5.70
2018-10-21T06:57:15.612Z,5.65
2018-10-21T06:59:45.168Z,5.61
2018-10-21T07:02:14.462Z,5.62
2018-10-21T07:04:43.946Z,5.67
2018-10-21T07:07:13.116Z,5.70
2018-10-21T07:09:42.513Z,6.19
2018-10-21T07:12:12.069Z,5.98
2018-10-21T07:14:41.634Z,8.67
2018-10-21T07:17:11.332Z,8.77
2018-10-21T07:19:40.875Z,7.42
2018-10-21T07:22:11.147Z,6.99
2018-10-21T07:24:40.778Z,6.68
2018-10-21T07:27:10.160Z,6.67
2018-10-21T07:29:40.088Z,6.82
2018-10-21T07:32:09.470Z,6.76
2018-10-21T07:34:38.944Z,6.89
2018-10-21T07:37:08.526Z,6.78
2018-10-21T07:39:37.798Z,6.67
2018-10-21T07:42:07.144Z,6.90
2018-10-21T07:44:36.557Z,6.98
2018-10-21T07:47:06.030Z,7.07
2018-10-21T07:49:35.351Z,7.19
2018-10-21T07:52:04.672Z,7.26
2018-10-21T07:54:33.943Z,7.31
2018-10-21T07:57:03.240Z,7.56
2018-10-21T07:59:32.550Z,7.48
2018-10-21T08:02:01.898Z,7.64
2018-10-21T08:04:31.384Z,7.80
2018-10-21T08:07:17.637Z,7.89
2018-10-21T08:09:47.136Z,7.72
2018-10-21T08:12:16.836Z,7.69
2018-10-21T08:14:46.143Z,7.77
2018-10-21T08:17:15.699Z,7.71
2018-10-21T08:19:49.831Z,7.86
2018-10-21T08:22:19.319Z,7.84
2018-10-21T08:24:51.267Z,7.88
2018-10-21T08:27:21.044Z,7.90
2018-10-21T08:29:51.304Z,7.96
2018-10-21T08:32:20.825Z,7.97
2018-10-21T08:34:50.672Z,8.26
2018-10-21T08:37:20.372Z,8.29
2018-10-21T08:39:50.400Z,8.70
2018-10-21T08:42:19.714Z,9.03
2018-10-21T08:44:49.533Z,9.27
2018-10-21T08:47:19.009Z,8.99
2018-10-21T08:49:49.855Z,9.11
2018-10-21T08:52:19.184Z,9.02
2018-10-21T08:54:48.667Z,9.34
2018-10-21T08:57:17.942Z,9.52
2018-10-21T08:59:47.399Z,9.47
2018-10-21T09:02:16.710Z,9.67
2018-10-21T09:04:46.046Z,9.55
2018-10-21T09:07:15.580Z,9.57
2018-10-21T09:09:45.420Z,9.27
2018-10-21T09:12:14.760Z,9.43
2018-10-21T09:14:44.176Z,9.66
2018-10-21T09:17:13.543Z,9.87
2018-10-21T09:19:42.830Z,9.99
2018-10-21T09:22:12.311Z,10.17
2018-10-21T09:24:41.686Z,10.32
2018-10-21T09:27:12.171Z,10.48
2018-10-21T09:29:41.668Z,10.81
2018-10-21T09:32:11.269Z,11.08
2018-10-21T09:34:40.854Z,11.15
2018-10-21T09:37:10.375Z,11.24
2018-10-21T09:39:39.646Z,11.66
2018-10-21T09:42:08.981Z,11.25
2018-10-21T09:44:38.346Z,11.35
2018-10-21T09:47:08.727Z,11.54
2018-10-21T09:49:38.263Z,11.47
2018-10-21T09:52:07.641Z,11.89
2018-10-21T09:54:37.037Z,11.82
2018-10-21T09:57:07.928Z,12.32
2018-10-21T09:59:37.264Z,12.43
2018-10-21T10:02:11.883Z,12.28
2018-10-21T10:04:41.419Z,12.19
2018-10-21T10:07:11.218Z,12.46
2018-10-21T10:09:40.528Z,12.27
2018-10-21T10:12:09.928Z,12.42
2018-10-21T10:14:39.356Z,12.20
2018-10-21T10:17:08.655Z,12.74
2018-10-21T10:19:38.038Z,12.90
2018-10-21T10:22:07.650Z,12.95
2018-10-21T10:24:37.553Z,13.34
2018-10-21T10:27:07.207Z,13.11
2018-10-21T10:29:37.529Z,13.04
2018-10-21T10:32:06.820Z,13.26
2018-10-21T10:34:36.146Z,13.04
2018-10-21T10:37:05.695Z,13.41
2018-10-21T10:39:35.235Z,13.15
2018-10-21T10:42:04.877Z,13.62
2018-10-21T10:44:34.025Z,13.69
2018-10-21T10:47:03.315Z,13.73
2018-10-21T10:52:07.146Z,13.76
2018-10-21T10:54:36.437Z,14.09
2018-10-21T10:57:05.780Z,13.95
2018-10-21T10:59:35.383Z,14.03
2018-10-21T11:02:05.855Z,14.42
2018-10-21T11:04:35.110Z,14.31
2018-10-21T11:07:04.550Z,14.02
2018-10-21T11:09:34.895Z,13.95
2018-10-21T11:12:04.214Z,14.09
2018-10-21T11:14:33.589Z,14.17
2018-10-21T11:17:02.886Z,14.16
2018-10-21T11:19:32.176Z,14.19
2018-10-21T11:22:01.582Z,14.53
2018-10-21T11:24:31.078Z,14.52
2018-10-21T11:27:00.834Z,14.51
2018-10-21T11:29:30.122Z,14.56
2018-10-21T11:31:59.462Z,14.65
2018-10-21T11:34:28.793Z,14.47
2018-10-21T11:36:58.486Z,14.54
2018-10-21T11:39:27.896Z,14.73
2018-10-21T11:41:59.071Z,14.29
2018-10-21T11:44:28.470Z,14.56
2018-10-21T11:46:59.105Z,14.69
2018-10-21T11:49:28.547Z,14.67
2018-10-21T11:51:58.139Z,14.87
2018-10-21T11:54:27.672Z,15.11
2018-10-21T11:56:57.257Z,14.64
2018-10-21T11:59:26.714Z,14.98
2018-10-21T12:01:56.159Z,15.12
2018-10-21T12:04:25.652Z,15.21
2018-10-21T12:06:55.387Z,15.16
2018-10-21T12:09:24.915Z,15.30
2018-10-21T12:11:54.640Z,15.19
2018-10-21T12:14:24.288Z,15.19
2018-10-21T12:16:53.921Z,15.35
2018-10-21T12:19:23.630Z,15.23
2018-10-21T12:21:53.570Z,15.22
2018-10-21T12:24:23.349Z,15.49
2018-10-21T12:26:53.123Z,15.24
2018-10-21T12:29:22.974Z,15.21
2018-10-21T12:31:52.986Z,15.50
2018-10-21T12:34:22.507Z,15.56
2018-10-21T12:36:52.203Z,15.55
2018-10-21T12:39:21.768Z,15.58
2018-10-21T12:41:51.475Z,15.82
2018-10-21T12:44:21.003Z,16.08
2018-10-21T12:46:50.503Z,15.81
2018-10-21T12:49:19.948Z,15.98
2018-10-21T12:51:49.438Z,15.85
2018-10-21T12:54:18.842Z,16.18
2018-10-21T12:56:48.141Z,15.73
2018-10-21T12:59:17.444Z,15.70
2018-10-21T13:01:47.355Z,15.89
2018-10-21T13:04:16.746Z,15.64
2018-10-21T13:06:47.165Z,15.72
2018-10-21T13:09:16.479Z,15.88
2018-10-21T13:11:45.840Z,15.69
2018-10-21T13:14:15.993Z,15.87
2018-10-21T13:16:45.326Z,15.71
2018-10-21T13:19:14.811Z,15.99
2018-10-21T13:21:44.114Z,16.02
2018-10-21T13:24:14.448Z,16.12
2018-10-21T13:26:43.755Z,15.89
2018-10-21T13:29:13.366Z,15.95
2018-10-21T13:31:42.755Z,16.15
2018-10-21T13:34:13.356Z,16.11
2018-10-21T13:36:42.809Z,16.06
2018-10-21T13:39:13.721Z,16.15
2018-10-21T13:41:44.164Z,16.04
2018-10-21T13:44:13.732Z,16.11
2018-10-21T13:46:43.242Z,16.23
2018-10-21T13:49:12.716Z,16.07
2018-10-21T13:51:43.315Z,16.20
2018-10-21T13:54:12.563Z,16.16
2018-10-21T13:56:42.106Z,16.13
2018-10-21T13:59:11.554Z,16.08
2018-10-21T14:01:40.917Z,16.31
2018-10-21T14:04:10.457Z,16.21
2018-10-21T14:06:39.817Z,16.15
2018-10-21T14:09:12.106Z,16.11
2018-10-21T14:11:41.534Z,16.16
2018-10-21T14:14:11.875Z,16.46
2018-10-21T14:16:42.255Z,16.34
2018-10-21T14:19:11.556Z,16.16
2018-10-21T14:21:40.929Z,16.23
2018-10-21T14:24:10.307Z,16.03
2018-10-21T14:26:39.641Z,16.02
2018-10-21T14:29:09.046Z,16.12
2018-10-21T14:31:38.343Z,16.17
2018-10-21T14:34:07.765Z,16.03
2018-10-21T14:36:37.068Z,16.08
2018-10-21T14:39:10.924Z,16.03
2018-10-21T14:41:40.696Z,16.06
2018-10-21T14:44:10.123Z,16.02
2018-10-21T14:46:40.099Z,15.92
2018-10-21T14:49:10.166Z,15.96
2018-10-21T14:51:39.493Z,15.78
2018-10-21T14:54:08.920Z,15.83
2018-10-21T14:56:38.146Z,15.71
2018-10-21T14:59:07.503Z,15.72
2018-10-21T15:01:36.846Z,15.73
2018-10-21T15:04:06.493Z,15.64
2018-10-21T15:06:35.745Z,15.52
2018-10-21T15:09:10.180Z,15.42
2018-10-21T15:11:39.495Z,15.44
2018-10-21T15:14:09.126Z,15.44
2018-10-21T15:16:38.525Z,15.34
2018-10-21T15:19:07.973Z,15.32
2018-10-21T15:21:37.658Z,15.23
2018-10-21T15:24:07.013Z,15.23
2018-10-21T15:26:36.317Z,15.12
2018-10-21T15:29:05.984Z,15.09
2018-10-21T15:31:35.183Z,15.02
2018-10-21T15:34:04.631Z,14.83
2018-10-21T15:36:33.883Z,14.75
2018-10-21T15:39:03.259Z,14.72
2018-10-21T15:41:32.544Z,14.54
2018-10-21T15:44:01.879Z,14.44
2018-10-21T15:46:31.144Z,14.42
2018-10-21T15:49:00.531Z,14.38
2018-10-21T15:51:29.774Z,14.24
2018-10-21T15:53:59.061Z,14.11
2018-10-21T15:56:28.505Z,14.08
2018-10-21T15:58:57.840Z,13.89
2018-10-21T16:01:27.279Z,13.83
2018-10-21T16:03:56.783Z,13.80
2018-10-21T16:06:26.231Z,13.63
2018-10-21T16:08:55.667Z,13.65
2018-10-21T16:11:25.244Z,13.60
2018-10-21T16:13:54.877Z,13.42
2018-10-21T16:16:25.287Z,13.31
2018-10-21T16:18:55.182Z,13.25
2018-10-21T16:21:24.739Z,13.21
2018-10-21T16:23:54.244Z,13.20
2018-10-21T16:26:24.039Z,12.99
2018-10-21T16:28:53.634Z,13.09
2018-10-21T16:31:23.399Z,12.91
2018-10-21T16:33:53.095Z,12.72
2018-10-21T16:36:22.690Z,12.52
2018-10-21T16:38:52.524Z,12.58
2018-10-21T16:41:26.675Z,12.52
2018-10-21T16:43:56.220Z,12.38
2018-10-21T16:46:25.899Z,12.46
2018-10-21T16:48:55.489Z,12.04
2018-10-21T16:51:25.197Z,11.98
2018-10-21T16:53:54.884Z,12.14
2018-10-21T16:56:24.666Z,12.04
2018-10-21T16:58:54.273Z,11.94
2018-10-21T17:01:23.868Z,11.72
2018-10-21T17:03:53.471Z,11.69
2018-10-21T17:06:22.878Z,11.61
2018-10-21T17:08:52.409Z,11.47
2018-10-21T17:11:21.822Z,11.58
2018-10-21T17:13:51.190Z,11.31
2018-10-21T17:16:20.506Z,11.39
2018-10-21T17:18:50.169Z,11.23
2018-10-21T17:21:19.590Z,11.36
2018-10-21T17:23:48.897Z,11.40
2018-10-21T17:26:18.466Z,11.22
2018-10-21T17:28:47.827Z,10.92
2018-10-21T17:31:17.315Z,10.87
2018-10-21T17:33:46.514Z,10.66
2018-10-21T17:36:15.872Z,10.53
2018-10-21T17:38:45.176Z,10.43
2018-10-21T17:41:15.143Z,10.55
2018-10-21T17:43:44.454Z,10.25
2018-10-21T17:46:13.997Z,10.04
2018-10-21T17:48:43.318Z,9.80
2018-10-21T17:51:12.742Z,9.74
2018-10-21T17:53:42.239Z,9.56
2018-10-21T17:56:11.684Z,9.43
2018-10-21T17:58:41.355Z,9.35
2018-10-21T18:01:10.685Z,9.24
2018-10-21T18:03:39.954Z,9.14
2018-10-21T18:06:09.395Z,9.23
2018-10-21T18:08:39.602Z,8.96
2018-10-21T18:11:09.510Z,8.82
2018-10-21T18:13:38.914Z,8.74
2018-10-21T18:16:08.331Z,8.68
2018-10-21T18:18:38.744Z,8.69
2018-10-21T18:21:08.295Z,8.61
2018-10-21T18:23:38.560Z,8.48
2018-10-21T18:26:08.065Z,8.31
2018-10-21T18:28:37.305Z,8.30
2018-10-21T18:31:06.689Z,8.31
2018-10-21T18:33:35.978Z,8.26
2018-10-21T18:36:05.439Z,8.28
2018-10-21T18:38:35.937Z,8.19
2018-10-21T18:41:05.694Z,8.12
2018-10-21T18:43:35.973Z,8.00
2018-10-21T18:46:05.525Z,7.90
2018-10-21T18:48:34.828Z,8.00
2018-10-21T18:51:04.192Z,7.80
2018-10-21T18:53:34.521Z,7.62
2018-10-21T18:56:03.873Z,7.67
2018-10-21T18:58:33.482Z,7.76
2018-10-21T19:01:02.801Z,7.69
2018-10-21T19:03:32.079Z,7.57
2018-10-21T19:06:01.493Z,7.46
2018-10-21T19:08:30.774Z,7.47
2018-10-21T19:11:00.087Z,7.58
2018-10-21T19:13:29.447Z,7.56
2018-10-21T19:15:58.750Z,7.51
2018-10-21T19:18:27.955Z,7.47
2018-10-21T19:20:57.406Z,7.40
2018-10-21T19:23:26.878Z,7.38
2018-10-21T19:25:56.265Z,7.16
2018-10-21T19:28:25.717Z,7.03
2018-10-21T19:30:55.334Z,6.92
2018-10-21T19:33:24.920Z,7.06
2018-10-21T19:35:54.468Z,7.11
2018-10-21T19:38:24.028Z,7.03
2018-10-21T19:40:53.566Z,6.95
2018-10-21T19:43:23.172Z,6.94
2018-10-21T19:45:52.784Z,6.94
2018-10-21T19:48:22.701Z,6.84
2018-10-21T19:50:55.342Z,6.83
2018-10-21T19:53:27.577Z,6.86
2018-10-21T19:55:58.059Z,6.87
2018-10-21T19:58:27.523Z,6.82
2018-10-21T20:00:57.066Z,6.79
2018-10-21T20:03:26.762Z,6.72
2018-10-21T20:05:56.367Z,6.68
2018-10-21T20:08:25.811Z,6.64
2018-10-21T20:10:55.375Z,6.61
2018-10-21T20:13:25.027Z,6.57
2018-10-21T20:15:54.780Z,6.62
2018-10-21T20:18:24.563Z,6.65
2018-10-21T20:20:54.260Z,6.59
2018-10-21T20:23:23.841Z,6.51
2018-10-21T20:25:53.510Z,6.55
2018-10-21T20:28:22.972Z,6.35
2018-10-21T20:30:52.621Z,6.34
2018-10-21T20:33:23.438Z,6.41
2018-10-21T20:35:53.391Z,6.29
2018-10-21T20:38:23.390Z,6.24
2018-10-21T20:40:52.973Z,6.29
2018-10-21T20:43:22.573Z,6.27
2018-10-21T20:45:52.674Z,6.20
2018-10-21T20:48:22.499Z,6.26
2018-10-21T20:50:52.322Z,6.29
2018-10-21T20:53:21.913Z,6.37
2018-10-21T20:55:51.529Z,6.44
2018-10-21T20:58:21.237Z,6.39
2018-10-21T21:00:50.852Z,6.28
2018-10-21T21:03:20.363Z,6.14
2018-10-21T21:05:49.766Z,6.16
2018-10-21T21:08:19.470Z,6.26
2018-10-21T21:10:49.132Z,6.15
2018-10-21T21:13:18.525Z,6.17
2018-10-21T21:15:47.787Z,6.22
2018-10-21T21:18:17.708Z,6.20
2018-10-21T21:20:47.229Z,6.08
2018-10-21T21:23:16.657Z,5.99
2018-10-21T21:25:46.238Z,5.89
2018-10-21T21:28:15.553Z,6.00
2018-10-21T21:30:44.713Z,6.03
2018-10-21T21:33:14.031Z,5.97
2018-10-21T21:35:43.503Z,5.90
2018-10-21T21:38:12.957Z,5.90
2018-10-21T21:40:42.247Z,5.95
2018-10-21T21:43:11.767Z,5.79
2018-10-21T21:45:41.154Z,5.67
2018-10-21T21:48:10.557Z,5.69
2018-10-21T21:50:40.060Z,5.59
2018-10-21T21:53:09.352Z,5.57
2018-10-21T21:55:38.683Z,5.60
2018-10-21T21:58:08.020Z,5.64
2018-10-21T22:00:37.336Z,5.58
2018-10-21T22:03:06.671Z,5.49
2018-10-21T22:05:35.922Z,5.44
2018-10-21T22:08:06.472Z,5.42
2018-10-21T22:10:35.768Z,5.52
2018-10-21T22:13:05.238Z,5.58
2018-10-21T22:15:34.552Z,5.54
2018-10-21T22:18:03.879Z,5.59
2018-10-21T22:20:33.119Z,5.48
2018-10-21T22:23:02.412Z,5.43
2018-10-21T22:25:31.663Z,5.43
2018-10-21T22:28:01.091Z,5.31
2018-10-21T22:30:30.395Z,5.49
2018-10-21T22:32:59.742Z,5.55
2018-10-21T22:35:28.989Z,5.44
2018-10-21T22:37:58.506Z,5.36
2018-10-21T22:40:27.911Z,5.30
2018-10-21T22:42:57.389Z,5.28
2018-10-21T22:45:26.837Z,5.19
2018-10-21T22:47:56.275Z,5.10
2018-10-21T22:50:26.354Z,4.96
2018-10-21T22:52:55.926Z,4.90
2018-10-21T22:55:25.610Z,4.98
2018-10-21T22:57:55.456Z,5.05
2018-10-21T23:00:25.386Z,5.08
2018-10-21T23:02:55.134Z,5.07
2018-10-21T23:05:24.711Z,5.05
2018-10-21T23:07:54.519Z,4.97
2018-10-21T23:10:24.179Z,4.96
2018-10-21T23:12:54.068Z,4.96
2018-10-21T23:15:23.584Z,4.96
2018-10-21T23:17:53.452Z,4.96
2018-10-21T23:20:23.159Z,4.79
2018-10-21T23:22:52.975Z,4.70
2018-10-21T23:25:22.925Z,4.65
2018-10-21T23:27:52.843Z,4.53
2018-10-21T23:30:22.862Z,4.40
2018-10-21T23:32:52.717Z,4.50
2018-10-21T23:35:22.432Z,4.45
2018-10-21T23:37:52.202Z,4.40
2018-10-21T23:40:22.127Z,4.44
2018-10-21T23:42:52.122Z,4.38
2018-10-21T23:45:22.260Z,4.38
2018-10-21T23:47:51.940Z,4.44
2018-10-21T23:50:21.804Z,4.31
2018-10-21T23:52:51.600Z,4.34
2018-10-21T23:55:21.194Z,4.23
2018-10-21T23:57:50.786Z,4.20
